»·PEaware :: N416JK KONT-KSEZ

N416JK :: KONT-KSEZ

FLIGHT INFORMATION

Flight Status: Arrived
Operator: Privately registered:
United States
More flights under this callsign
Pilot: John K. (4202)
Aircraft: Unknown
(EPIC)
More flights by this aircraft type
Origin: KONT Ontario Intl
United States
Destination: KSEZ Sedona
United States
More flights between these airports :: More routes between these airports
Route: NIKKL1 TRM J78 DRK JUWSO EXUTY
File this flight plan on PilotEdge
Remarks:
Altitude:
(Current/Filed)
25,000ft
Speed:
(Current/Filed)
300kts
Departed: 20-Aug-22 09:42 AM
Arrived: 20-Aug-22 10:52 AM
Distance/Time
Traveled:
291nm/1:10
Distance/Time
To Go:
Arrived

Flight Plot

Page will automatically refresh every two minutes.

Flight plan parsing failed; only flown route is shown


Map Options




Map Legend


Flown Route
Filed Route
Departure Airport
Arrival Airport
Navaid (VOR, NDB)
Fix

Horizontal Profiles

Position Reports

Time Latitude Longitude Heading Altitude Ground
Speed
20-Aug-22 09:22 34.051975 -117.612243 180 946ft 0kts
20-Aug-22 09:23 34.051975 -117.612243 180 946ft 0kts
20-Aug-22 09:24 34.051975 -117.612243 180 946ft 0kts
20-Aug-22 09:24 34.051975 -117.612243 180 946ft 0kts
20-Aug-22 09:25 34.051974 -117.612243 180 946ft 0kts
20-Aug-22 09:27 34.051974 -117.612243 180 946ft 0kts
20-Aug-22 09:28 34.051974 -117.612243 180 946ft 0kts
20-Aug-22 09:28 34.052092 -117.612709 326 946ft 0kts
20-Aug-22 09:29 34.052092 -117.612709 326 946ft 0kts
20-Aug-22 09:30 34.052092 -117.612709 325 946ft 0kts
20-Aug-22 09:31 34.052093 -117.612709 325 946ft 0kts
20-Aug-22 09:32 34.052369 -117.612806 1 946ft 12kts
20-Aug-22 09:33 34.053852 -117.609184 87 946ft 12kts
20-Aug-22 09:34 34.053862 -117.605633 88 946ft 9kts
20-Aug-22 09:35 34.053855 -117.601241 89 946ft 15kts
20-Aug-22 09:36 34.053883 -117.595398 91 946ft 18kts
20-Aug-22 09:37 34.053876 -117.585742 90 946ft 25kts
20-Aug-22 09:38 34.054085 -117.582809 0 946ft 0kts
20-Aug-22 09:39 34.054085 -117.582809 0 946ft 0kts
20-Aug-22 09:40 34.054085 -117.582809 0 946ft 0kts
20-Aug-22 09:41 34.054424 -117.608786 265 1201ft 169kts
20-Aug-22 09:42 34.027059 -117.603183 124 3240ft 217kts
20-Aug-22 09:43 33.974161 -117.557503 154 4180ft 251kts
20-Aug-22 09:44 33.911120 -117.522891 144 5158ft 265kts
20-Aug-22 09:45 33.850318 -117.472819 145 6030ft 261kts
20-Aug-22 09:46 33.793023 -117.424926 145 7683ft 242kts
20-Aug-22 09:47 33.738623 -117.379370 142 9678ft 236kts
20-Aug-22 09:48 33.725400 -117.306431 95 11669ft 224kts
20-Aug-22 09:49 33.719681 -117.234192 95 13664ft 211kts
20-Aug-22 09:50 33.713524 -117.158180 94 15035ft 234kts
20-Aug-22 09:51 33.707260 -117.081642 93 16826ft 227kts
20-Aug-22 09:52 33.701104 -117.006748 92 18614ft 228kts
20-Aug-22 09:53 33.694848 -116.931257 92 20307ft 226kts
20-Aug-22 09:54 33.688365 -116.853610 92 21309ft 240kts
20-Aug-22 09:55 33.681532 -116.772635 92 22309ft 246kts
20-Aug-22 09:56 33.674561 -116.690554 93 23304ft 248kts
20-Aug-22 09:57 33.667489 -116.608136 93 24302ft 247kts
20-Aug-22 09:58 33.660346 -116.525458 94 24920ft 260kts
20-Aug-22 09:59 33.652475 -116.435176 94 24920ft 282kts
20-Aug-22 10:00 33.643957 -116.338116 95 24873ft 301kts
20-Aug-22 10:01 33.635003 -116.237275 95 24871ft 307kts
20-Aug-22 10:02 33.635485 -116.136362 67 24878ft 306kts
20-Aug-22 10:03 33.667158 -116.040928 67 24871ft 308kts
20-Aug-22 10:04 33.698441 -115.945214 67 24871ft 309kts
20-Aug-22 10:05 33.729696 -115.849219 67 24871ft 309kts
20-Aug-22 10:06 33.760839 -115.753287 67 24871ft 309kts
20-Aug-22 10:07 33.791911 -115.657247 68 24871ft 309kts
20-Aug-22 10:08 33.822952 -115.561004 68 24872ft 309kts
20-Aug-22 10:09 33.853883 -115.464805 68 24871ft 308kts
20-Aug-22 10:10 33.884667 -115.368765 68 24908ft 307kts
20-Aug-22 10:11 33.915318 -115.272849 68 24908ft 308kts
20-Aug-22 10:12 33.946048 -115.176380 68 24908ft 308kts
20-Aug-22 10:13 33.976644 -115.080007 68 24908ft 309kts
20-Aug-22 10:14 34.007262 -114.983273 68 24908ft 309kts
20-Aug-22 10:15 34.037844 -114.886336 68 24908ft 309kts
20-Aug-22 10:16 34.068340 -114.789365 68 24908ft 310kts
20-Aug-22 10:17 34.098735 -114.692358 68 24908ft 310kts
20-Aug-22 10:18 34.126928 -114.593971 69 24909ft 310kts
20-Aug-22 10:19 34.154675 -114.495698 69 24927ft 309kts
20-Aug-22 10:20 34.182328 -114.397421 69 24927ft 310kts
20-Aug-22 10:21 34.210027 -114.298627 70 24926ft 310kts
20-Aug-22 10:22 34.237577 -114.199982 70 24926ft 310kts
20-Aug-22 10:23 34.265051 -114.101474 70 24927ft 309kts
20-Aug-22 10:24 34.292450 -114.002605 70 24575ft 321kts
20-Aug-22 10:25 34.321472 -113.897594 70 23926ft 325kts
20-Aug-22 10:26 34.349594 -113.795481 70 23926ft 316kts
20-Aug-22 10:27 34.377109 -113.695176 70 23926ft 313kts
20-Aug-22 10:28 34.404991 -113.593226 70 23036ft 333kts
20-Aug-22 10:29 34.434745 -113.483955 70 21546ft 348kts
20-Aug-22 10:30 34.465061 -113.372183 70 20051ft 351kts
20-Aug-22 10:31 34.495393 -113.259897 71 18552ft 351kts
20-Aug-22 10:32 34.524022 -113.153451 70 17280ft 318kts
20-Aug-22 10:33 34.550770 -113.053650 69 15779ft 306kts
20-Aug-22 10:34 34.577446 -112.953790 69 14284ft 316kts
20-Aug-22 10:35 34.602996 -112.857724 69 13979ft 282kts
20-Aug-22 10:36 34.626322 -112.769815 69 13979ft 268kts
20-Aug-22 10:37 34.649548 -112.681976 69 13034ft 284kts
20-Aug-22 10:38 34.674143 -112.588752 69 11629ft 295kts
20-Aug-22 10:39 34.699249 -112.492964 70 10221ft 293kts
20-Aug-22 10:40 34.718727 -112.407010 72 10032ft 241kts
20-Aug-22 10:41 34.736398 -112.326732 72 10037ft 251kts
20-Aug-22 10:42 34.755737 -112.238512 73 10038ft 283kts
20-Aug-22 10:43 34.776369 -112.144013 73 10044ft 293kts
20-Aug-22 10:44 34.791999 -112.050850 103 9850ft 265kts
20-Aug-22 10:45 34.742927 -111.986343 133 8344ft 246kts
20-Aug-22 10:46 34.737424 -111.929107 49 7845ft 166kts
20-Aug-22 10:47 34.761938 -111.896540 47 6587ft 82kts
20-Aug-22 10:48 34.779379 -111.874673 46 6530ft 125kts
20-Aug-22 10:49 34.806466 -111.840938 46 5801ft 150kts
20-Aug-22 10:50 34.832857 -111.808073 46 5093ft 112kts
20-Aug-22 10:51 34.849461 -111.787365 45 4759ft 17kts
20-Aug-22 10:52 34.850830 -111.787879 224 4767ft 0kts

Navigation Log

Ident Type
Flight plan parsing failed, navigation log unavailable